TimeEST,TemperatureF,Dew PointF,Humidity,Sea Level PressureIn,VisibilityMPH,Wind Direction,Wind SpeedMPH,Gust SpeedMPH,PrecipitationIn,Events,Conditions,WindDirDegrees,DateUTC
12:15 AM,55.4,44.6,67,30.04,10.0,SSE,9.2,-,N/A,,Overcast,150,2012-12-07 05:15:00
12:35 AM,53.6,44.6,72,30.05,10.0,SSE,11.5,-,N/A,,Overcast,150,2012-12-07 05:35:00
12:55 AM,53.6,44.6,72,30.04,10.0,SE,9.2,-,N/A,,Overcast,140,2012-12-07 05:55:00
1:35 AM,53.6,44.6,72,30.04,10.0,SSE,11.5,-,N/A,,Clear,150,2012-12-07 06:35:00
1:55 AM,53.6,44.6,72,30.04,10.0,SSE,10.4,-,N/A,,Mostly Cloudy,150,2012-12-07 06:55:00
2:15 AM,53.6,46.4,77,30.04,10.0,SE,12.7,-,N/A,,Overcast,140,2012-12-07 07:15:00
2:35 AM,53.6,46.4,77,30.04,10.0,SE,13.8,-,N/A,,Overcast,130,2012-12-07 07:35:00
2:55 AM,53.6,46.4,77,30.04,10.0,SE,10.4,-,N/A,,Overcast,140,2012-12-07 07:55:00
3:15 AM,51.8,46.4,82,30.04,10.0,SE,13.8,-,N/A,,Overcast,130,2012-12-07 08:15:00
3:35 AM,51.8,46.4,82,30.04,10.0,SE,12.7,-,N/A,,Mostly Cloudy,130,2012-12-07 08:35:00
3:55 AM,51.8,46.4,82,30.04,10.0,SE,10.4,-,N/A,,Overcast,140,2012-12-07 08:55:00
4:15 AM,51.8,46.4,82,30.04,10.0,South,5.8,-,N/A,,Overcast,170,2012-12-07 09:15:00
4:35 AM,53.6,46.4,77,30.03,10.0,SSE,8.1,-,N/A,,Overcast,150,2012-12-07 09:35:00
4:55 AM,53.6,48.2,82,30.04,10.0,SSE,8.1,-,N/A,,Overcast,160,2012-12-07 09:55:00
5:15 AM,53.6,46.4,77,30.04,10.0,Calm,Calm,-,N/A,,Overcast,0,2012-12-07 10:15:00
5:35 AM,51.8,46.4,82,30.04,10.0,SSE,9.2,-,N/A,,Overcast,150,2012-12-07 10:35:00
5:55 AM,53.6,46.4,77,30.03,10.0,SSE,15.0,-,N/A,,Overcast,150,2012-12-07 10:55:00
6:15 AM,51.8,48.2,88,30.03,10.0,SE,10.4,-,N/A,,Mostly Cloudy,130,2012-12-07 11:15:00
6:35 AM,51.8,48.2,88,30.04,10.0,SSE,8.1,-,N/A,,Mostly Cloudy,150,2012-12-07 11:35:00
6:55 AM,51.8,48.2,88,30.05,10.0,East,3.5,-,N/A,,Overcast,100,2012-12-07 11:55:00
7:15 AM,51.8,48.2,88,30.05,10.0,SE,10.4,-,N/A,,Overcast,130,2012-12-07 12:15:00
7:35 AM,51.8,48.2,88,30.05,10.0,ESE,6.9,-,N/A,,Overcast,120,2012-12-07 12:35:00
7:55 AM,51.8,48.2,88,30.05,10.0,SE,9.2,-,N/A,,Overcast,130,2012-12-07 12:55:00
8:15 AM,51.8,48.2,88,30.05,10.0,SE,10.4,-,N/A,,Overcast,140,2012-12-07 13:15:00
8:35 AM,53.6,48.2,82,30.05,10.0,SSE,12.7,-,N/A,,Overcast,160,2012-12-07 13:35:00
8:55 AM,53.6,48.2,82,30.05,10.0,South,10.4,-,N/A,,Overcast,170,2012-12-07 13:55:00
9:15 AM,53.6,48.2,82,30.06,10.0,Variable,5.8,-,N/A,,Overcast,0,2012-12-07 14:15:00
9:35 AM,53.6,48.2,82,30.06,10.0,SSE,12.7,-,N/A,,Overcast,160,2012-12-07 14:35:00
9:55 AM,55.4,48.2,77,30.06,10.0,SSE,9.2,-,N/A,,Overcast,160,2012-12-07 14:55:00
10:15 AM,55.4,50.0,82,30.05,10.0,SSE,11.5,-,N/A,,Mostly Cloudy,160,2012-12-07 15:15:00
10:35 AM,55.4,50.0,82,30.05,10.0,SSE,8.1,-,N/A,,Clear,150,2012-12-07 15:35:00
10:55 AM,57.2,50.0,77,30.05,10.0,South,11.5,-,N/A,,Clear,170,2012-12-07 15:55:00
11:15 AM,59.0,51.8,77,30.04,10.0,SSE,8.1,-,N/A,,Partly Cloudy,150,2012-12-07 16:15:00
11:35 AM,57.2,50.0,77,30.04,10.0,SE,5.8,-,N/A,,Mostly Cloudy,140,2012-12-07 16:35:00
11:55 AM,57.2,51.8,82,30.02,10.0,SE,5.8,-,N/A,,Overcast,140,2012-12-07 16:55:00
12:15 PM,57.2,50.0,77,30.01,10.0,SE,6.9,-,N/A,,Mostly Cloudy,140,2012-12-07 17:15:00
12:35 PM,60.8,51.8,72,30.00,10.0,SSE,6.9,-,N/A,,Mostly Cloudy,150,2012-12-07 17:35:00
12:55 PM,60.8,51.8,72,29.99,10.0,Variable,4.6,-,N/A,,Mostly Cloudy,0,2012-12-07 17:55:00
1:15 PM,62.6,51.8,68,29.98,10.0,SSW,4.6,-,N/A,,Mostly Cloudy,200,2012-12-07 18:15:00
1:35 PM,62.6,51.8,68,29.97,10.0,South,5.8,-,N/A,,Mostly Cloudy,190,2012-12-07 18:35:00
1:55 PM,62.6,51.8,68,29.96,10.0,SE,4.6,-,N/A,,Mostly Cloudy,140,2012-12-07 18:55:00
2:15 PM,62.6,51.8,68,29.96,10.0,South,5.8,-,N/A,,Overcast,190,2012-12-07 19:15:00
2:35 PM,62.6,51.8,68,29.95,10.0,SE,4.6,-,N/A,,Overcast,140,2012-12-07 19:35:00
2:55 PM,64.4,51.8,64,29.94,10.0,South,6.9,-,N/A,,Overcast,170,2012-12-07 19:55:00
3:15 PM,64.4,53.6,68,29.94,10.0,South,9.2,-,N/A,,Overcast,180,2012-12-07 20:15:00
3:35 PM,64.4,53.6,68,29.94,10.0,South,5.8,-,N/A,,Scattered Clouds,190,2012-12-07 20:35:00
3:55 PM,64.4,51.8,64,29.94,10.0,SSW,9.2,-,N/A,,Mostly Cloudy,200,2012-12-07 20:55:00
4:15 PM,62.6,51.8,68,29.94,10.0,South,5.8,-,N/A,,Mostly Cloudy,190,2012-12-07 21:15:00
4:35 PM,62.6,51.8,68,29.94,10.0,South,6.9,-,N/A,,Mostly Cloudy,170,2012-12-07 21:35:00
4:55 PM,62.6,51.8,68,29.94,10.0,South,9.2,-,N/A,,Overcast,170,2012-12-07 21:55:00
5:15 PM,60.8,51.8,72,29.95,10.0,SSE,8.1,-,N/A,,Overcast,160,2012-12-07 22:15:00
5:35 PM,60.8,51.8,72,29.96,10.0,SSE,4.6,-,N/A,,Overcast,160,2012-12-07 22:35:00
5:55 PM,60.8,51.8,72,29.96,10.0,SSE,6.9,-,N/A,,Overcast,160,2012-12-07 22:55:00
6:15 PM,60.8,51.8,72,29.96,10.0,SSW,5.8,-,N/A,,Overcast,200,2012-12-07 23:15:00
6:35 PM,60.8,51.8,72,29.96,10.0,South,5.8,-,N/A,,Overcast,180,2012-12-07 23:35:00
6:55 PM,60.8,51.8,72,29.96,10.0,SSE,6.9,-,N/A,,Overcast,160,2012-12-07 23:55:00
7:15 PM,60.8,51.8,72,29.96,10.0,South,5.8,-,N/A,,Overcast,170,2012-12-08 00:15:00
7:35 PM,60.8,51.8,72,29.97,10.0,South,4.6,-,N/A,,Overcast,170,2012-12-08 00:35:00
8:15 PM,60.8,51.8,72,29.97,10.0,South,3.5,-,N/A,,Overcast,180,2012-12-08 01:15:00
8:35 PM,59.0,51.8,77,29.97,10.0,SE,5.8,-,N/A,,Overcast,140,2012-12-08 01:35:00
8:55 PM,59.0,51.8,77,29.97,10.0,SSE,6.9,-,N/A,,Overcast,150,2012-12-08 01:55:00
9:15 PM,57.2,51.8,82,29.97,10.0,SSE,8.1,-,N/A,,Mostly Cloudy,160,2012-12-08 02:15:00
9:35 PM,57.2,50.0,77,29.98,10.0,South,5.8,-,N/A,,Scattered Clouds,180,2012-12-08 02:35:00
9:55 PM,57.2,51.8,82,29.98,10.0,South,5.8,-,N/A,,Mostly Cloudy,170,2012-12-08 02:55:00
10:15 PM,57.2,51.8,82,29.98,10.0,SSE,5.8,-,N/A,,Overcast,160,2012-12-08 03:15:00
10:35 PM,57.2,51.8,82,29.97,10.0,SSE,8.1,-,N/A,,Mostly Cloudy,160,2012-12-08 03:35:00
10:55 PM,57.2,51.8,82,29.98,10.0,South,4.6,-,N/A,,Mostly Cloudy,170,2012-12-08 03:55:00
11:15 PM,57.2,51.8,82,29.98,10.0,Calm,Calm,-,N/A,,Mostly Cloudy,0,2012-12-08 04:15:00
11:35 PM,55.4,51.8,88,29.98,10.0,Calm,Calm,-,N/A,,Mostly Cloudy,0,2012-12-08 04:35:00
11:55 PM,53.6,50.0,88,29.98,10.0,Calm,Calm,-,N/A,,Partly Cloudy,0,2012-12-08 04:55:00